sensor_id;sensor_type;location;lat;lon;timestamp;pressure;altitude;pressure_sealevel;temperature;humidity
11936;BME280;6027;48.576;9.180;2023-05-22T00:01:01;96493.91;;;15.53;100.00
11936;BME280;6027;48.576;9.180;2023-05-22T00:03:29;96491.44;;;15.51;100.00
11936;BME280;6027;48.576;9.180;2023-05-22T00:05:54;96492.72;;;15.49;100.00
11936;BME280;6027;48.576;9.180;2023-05-22T00:08:26;96495.81;;;15.46;100.00
11936;BME280;6027;48.576;9.180;2023-05-22T00:10:53;96496.63;;;15.46;100.00
11936;BME280;6027;48.576;9.180;2023-05-22T00:13:18;96481.22;;;15.48;100.00
11936;BME280;6027;48.576;9.180;2023-05-22T00:15:44;96489.44;;;15.47;100.00
11936;BME280;6027;48.576;9.180;2023-05-22T00:18:10;96480.78;;;15.51;100.00
11936;BME280;6027;48.576;9.180;2023-05-22T00:20:38;96474.47;;;15.46;100.00
11936;BME280;6027;48.576;9.180;2023-05-22T00:23:05;96491.97;;;15.42;100.00
11936;BME280;6027;48.576;9.180;2023-05-22T00:25:35;96484.03;;;15.35;100.00
11936;BME280;6027;48.576;9.180;2023-05-22T00:28:01;96475.84;;;14.94;100.00
11936;BME280;6027;48.576;9.180;2023-05-22T00:30:26;96477.78;;;15.05;100.00
11936;BME280;6027;48.576;9.180;2023-05-22T00:32:51;96480.88;;;15.02;100.00
11936;BME280;6027;48.576;9.180;2023-05-22T00:35:17;96485.03;;;14.98;100.00
11936;BME280;6027;48.576;9.180;2023-05-22T00:37:42;96482.38;;;14.98;100.00
11936;BME280;6027;48.576;9.180;2023-05-22T00:40:11;96481.22;;;14.87;100.00
11936;BME280;6027;48.576;9.180;2023-05-22T00:42:37;96477.50;;;14.63;100.00
11936;BME280;6027;48.576;9.180;2023-05-22T00:45:03;96485.69;;;14.68;100.00
11936;BME280;6027;48.576;9.180;2023-05-22T00:47:29;96487.28;;;14.76;100.00
11936;BME280;6027;48.576;9.180;2023-05-22T00:49:57;96476.81;;;14.74;100.00
11936;BME280;6027;48.576;9.180;2023-05-22T00:52:22;96489.50;;;14.79;100.00
11936;BME280;6027;48.576;9.180;2023-05-22T00:54:49;96486.66;;;14.74;100.00
11936;BME280;6027;48.576;9.180;2023-05-22T00:57:15;96483.16;;;14.80;100.00
11936;BME280;6027;48.576;9.180;2023-05-22T00:59:42;96485.13;;;14.84;100.00
11936;BME280;6027;48.576;9.180;2023-05-22T01:02:08;96484.00;;;14.74;100.00
11936;BME280;6027;48.576;9.180;2023-05-22T01:04:33;96486.97;;;14.84;100.00
11936;BME280;6027;48.576;9.180;2023-05-22T01:06:59;96486.03;;;14.78;100.00
11936;BME280;6027;48.576;9.180;2023-05-22T01:09:28;96480.53;;;14.73;100.00
11936;BME280;6027;48.576;9.180;2023-05-22T01:12:08;96487.09;;;14.71;100.00
11936;BME280;6027;48.576;9.180;2023-05-22T01:17:41;96486.31;;;14.32;100.00
11936;BME280;6027;48.576;9.180;2023-05-22T01:20:31;96493.06;;;14.35;100.00
11936;BME280;6027;48.576;9.180;2023-05-22T01:29:42;96489.59;;;14.41;100.00
11936;BME280;6027;48.576;9.180;2023-05-22T01:31:42;96493.63;;;14.43;100.00
11936;BME280;6027;48.576;9.180;2023-05-22T01:34:10;96495.09;;;14.39;100.00
11936;BME280;6027;48.576;9.180;2023-05-22T01:36:37;96492.25;;;14.34;100.00
11936;BME280;6027;48.576;9.180;2023-05-22T01:39:04;96501.44;;;14.38;100.00
11936;BME280;6027;48.576;9.180;2023-05-22T01:41:34;96498.41;;;14.41;100.00
11936;BME280;6027;48.576;9.180;2023-05-22T01:44:00;96495.94;;;14.33;100.00
11936;BME280;6027;48.576;9.180;2023-05-22T01:46:26;96505.00;;;14.26;100.00
11936;BME280;6027;48.576;9.180;2023-05-22T01:48:52;96500.94;;;14.23;100.00
11936;BME280;6027;48.576;9.180;2023-05-22T01:54:22;96505.56;;;14.34;100.00
11936;BME280;6027;48.576;9.180;2023-05-22T01:57:10;96514.38;;;14.35;100.00
11936;BME280;6027;48.576;9.180;2023-05-22T02:00:06;96514.78;;;14.38;100.00
11936;BME280;6027;48.576;9.180;2023-05-22T02:02:38;96513.56;;;14.34;100.00
11936;BME280;6027;48.576;9.180;2023-05-22T02:05:08;96510.69;;;14.36;100.00
11936;BME280;6027;48.576;9.180;2023-05-22T02:07:37;96500.63;;;14.38;100.00
11936;BME280;6027;48.576;9.180;2023-05-22T02:10:04;96514.94;;;14.43;100.00
11936;BME280;6027;48.576;9.180;2023-05-22T02:12:31;96502.47;;;14.37;100.00
11936;BME280;6027;48.576;9.180;2023-05-22T02:14:58;96512.28;;;14.43;100.00
11936;BME280;6027;48.576;9.180;2023-05-22T02:17:24;96504.06;;;14.51;100.00
11936;BME280;6027;48.576;9.180;2023-05-22T02:19:50;96502.03;;;14.47;100.00
11936;BME280;6027;48.576;9.180;2023-05-22T02:22:16;96505.75;;;14.39;100.00
11936;BME280;6027;48.576;9.180;2023-05-22T02:24:44;96503.53;;;14.30;100.00
11936;BME280;6027;48.576;9.180;2023-05-22T02:27:10;96500.38;;;14.08;100.00
11936;BME280;6027;48.576;9.180;2023-05-22T02:29:36;96496.38;;;13.92;100.00
11936;BME280;6027;48.576;9.180;2023-05-22T02:32:02;96502.59;;;13.79;100.00
11936;BME280;6027;48.576;9.180;2023-05-22T02:34:28;96498.78;;;13.62;100.00
11936;BME280;6027;48.576;9.180;2023-05-22T02:36:57;96503.91;;;13.57;100.00
11936;BME280;6027;48.576;9.180;2023-05-22T02:39:26;96503.28;;;13.48;100.00
11936;BME280;6027;48.576;9.180;2023-05-22T02:41:52;96499.88;;;13.41;100.00
11936;BME280;6027;48.576;9.180;2023-05-22T02:44:17;96502.88;;;13.58;100.00
11936;BME280;6027;48.576;9.180;2023-05-22T02:46:43;96498.59;;;13.51;100.00
11936;BME280;6027;48.576;9.180;2023-05-22T02:49:08;96505.81;;;13.30;100.00
11936;BME280;6027;48.576;9.180;2023-05-22T02:51:33;96507.03;;;13.34;100.00
11936;BME280;6027;48.576;9.180;2023-05-22T02:53:59;96506.81;;;13.42;100.00
11936;BME280;6027;48.576;9.180;2023-05-22T02:56:24;96508.66;;;13.29;100.00
11936;BME280;6027;48.576;9.180;2023-05-22T02:58:53;96511.72;;;13.45;100.00
11936;BME280;6027;48.576;9.180;2023-05-22T03:01:18;96515.19;;;13.46;100.00
11936;BME280;6027;48.576;9.180;2023-05-22T03:03:45;96519.09;;;13.43;100.00
11936;BME280;6027;48.576;9.180;2023-05-22T03:06:12;96522.78;;;13.29;100.00
11936;BME280;6027;48.576;9.180;2023-05-22T03:08:38;96533.81;;;13.33;100.00
11936;BME280;6027;48.576;9.180;2023-05-22T03:11:08;96530.34;;;13.45;100.00
11936;BME280;6027;48.576;9.180;2023-05-22T03:13:33;96531.16;;;13.33;100.00
11936;BME280;6027;48.576;9.180;2023-05-22T03:15:58;96516.47;;;13.24;100.00
11936;BME280;6027;48.576;9.180;2023-05-22T03:18:24;96519.53;;;13.21;100.00
11936;BME280;6027;48.576;9.180;2023-05-22T03:20:50;96523.78;;;13.35;100.00
11936;BME280;6027;48.576;9.180;2023-05-22T03:23:15;96522.81;;;13.23;100.00
11936;BME280;6027;48.576;9.180;2023-05-22T03:25:42;96525.22;;;13.37;100.00
11936;BME280;6027;48.576;9.180;2023-05-22T03:28:07;96518.06;;;13.44;100.00
11936;BME280;6027;48.576;9.180;2023-05-22T03:30:32;96522.78;;;13.42;100.00
11936;BME280;6027;48.576;9.180;2023-05-22T03:32:58;96529.94;;;13.42;100.00
11936;BME280;6027;48.576;9.180;2023-05-22T03:35:23;96524.38;;;13.50;100.00
11936;BME280;6027;48.576;9.180;2023-05-22T03:37:49;96517.63;;;13.54;100.00
11936;BME280;6027;48.576;9.180;2023-05-22T03:40:15;96520.50;;;13.46;100.00
11936;BME280;6027;48.576;9.180;2023-05-22T03:42:40;96517.41;;;13.56;100.00
11936;BME280;6027;48.576;9.180;2023-05-22T03:45:06;96516.19;;;13.58;100.00
11936;BME280;6027;48.576;9.180;2023-05-22T03:47:32;96513.09;;;13.61;100.00
11936;BME280;6027;48.576;9.180;2023-05-22T03:49:57;96506.75;;;13.62;100.00
11936;BME280;6027;48.576;9.180;2023-05-22T03:52:22;96513.47;;;13.71;100.00
11936;BME280;6027;48.576;9.180;2023-05-22T03:54:48;96508.88;;;13.92;100.00
11936;BME280;6027;48.576;9.180;2023-05-22T03:57:13;96504.94;;;14.01;100.00
11936;BME280;6027;48.576;9.180;2023-05-22T03:59:40;96518.25;;;14.01;100.00
11936;BME280;6027;48.576;9.180;2023-05-22T04:02:06;96505.09;;;14.06;100.00
11936;BME280;6027;48.576;9.180;2023-05-22T04:04:32;96507.13;;;14.10;100.00
11936;BME280;6027;48.576;9.180;2023-05-22T04:07:03;96512.84;;;14.14;100.00
11936;BME280;6027;48.576;9.180;2023-05-22T04:09:33;96520.97;;;14.26;100.00
11936;BME280;6027;48.576;9.180;2023-05-22T04:11:59;96521.13;;;14.37;100.00
11936;BME280;6027;48.576;9.180;2023-05-22T04:14:26;96519.50;;;14.36;100.00
11936;BME280;6027;48.576;9.180;2023-05-22T04:16:51;96520.53;;;14.42;100.00
11936;BME280;6027;48.576;9.180;2023-05-22T04:19:17;96528.88;;;14.45;100.00
11936;BME280;6027;48.576;9.180;2023-05-22T04:21:42;96529.91;;;14.44;100.00
11936;BME280;6027;48.576;9.180;2023-05-22T04:24:08;96525.66;;;14.30;100.00
11936;BME280;6027;48.576;9.180;2023-05-22T04:26:35;96530.34;;;14.41;100.00
11936;BME280;6027;48.576;9.180;2023-05-22T04:29:02;96523.00;;;14.30;100.00
11936;BME280;6027;48.576;9.180;2023-05-22T04:31:28;96522.47;;;14.22;100.00
11936;BME280;6027;48.576;9.180;2023-05-22T04:33:54;96529.16;;;14.31;100.00
11936;BME280;6027;48.576;9.180;2023-05-22T04:36:20;96527.47;;;14.36;100.00
11936;BME280;6027;48.576;9.180;2023-05-22T04:38:53;96542.19;;;14.45;100.00
11936;BME280;6027;48.576;9.180;2023-05-22T04:41:19;96524.97;;;14.48;100.00
11936;BME280;6027;48.576;9.180;2023-05-22T04:43:46;96536.66;;;14.47;100.00
11936;BME280;6027;48.576;9.180;2023-05-22T04:46:13;96532.31;;;14.52;100.00
11936;BME280;6027;48.576;9.180;2023-05-22T04:48:39;96536.03;;;14.51;100.00
11936;BME280;6027;48.576;9.180;2023-05-22T04:51:05;96534.97;;;14.52;100.00
11936;BME280;6027;48.576;9.180;2023-05-22T04:53:31;96541.94;;;14.54;100.00
11936;BME280;6027;48.576;9.180;2023-05-22T04:56:00;96534.75;;;14.61;100.00
11936;BME280;6027;48.576;9.180;2023-05-22T04:58:25;96531.63;;;14.64;100.00
11936;BME280;6027;48.576;9.180;2023-05-22T05:00:54;96545.72;;;14.71;100.00
11936;BME280;6027;48.576;9.180;2023-05-22T05:03:25;96530.50;;;14.78;100.00
11936;BME280;6027;48.576;9.180;2023-05-22T05:05:51;96532.50;;;14.82;100.00
11936;BME280;6027;48.576;9.180;2023-05-22T05:08:16;96544.44;;;14.80;100.00
11936;BME280;6027;48.576;9.180;2023-05-22T05:10:42;96539.09;;;14.80;100.00
11936;BME280;6027;48.576;9.180;2023-05-22T05:13:08;96543.84;;;14.78;100.00
11936;BME280;6027;48.576;9.180;2023-05-22T05:15:33;96541.81;;;14.73;100.00
11936;BME280;6027;48.576;9.180;2023-05-22T05:17:59;96549.31;;;14.83;100.00
11936;BME280;6027;48.576;9.180;2023-05-22T05:20:24;96547.31;;;14.78;100.00
11936;BME280;6027;48.576;9.180;2023-05-22T05:22:51;96555.38;;;14.65;100.00
11936;BME280;6027;48.576;9.180;2023-05-22T05:25:17;96554.63;;;14.58;100.00
11936;BME280;6027;48.576;9.180;2023-05-22T05:27:43;96554.78;;;14.63;100.00
11936;BME280;6027;48.576;9.180;2023-05-22T05:30:08;96554.44;;;14.53;100.00
11936;BME280;6027;48.576;9.180;2023-05-22T05:32:35;96554.75;;;14.70;100.00
11936;BME280;6027;48.576;9.180;2023-05-22T05:35:01;96556.97;;;14.73;100.00
11936;BME280;6027;48.576;9.180;2023-05-22T05:37:26;96557.31;;;14.83;100.00
11936;BME280;6027;48.576;9.180;2023-05-22T05:39:51;96563.63;;;14.89;100.00
11936;BME280;6027;48.576;9.180;2023-05-22T05:42:17;96559.47;;;14.99;100.00
11936;BME280;6027;48.576;9.180;2023-05-22T05:44:42;96564.34;;;15.02;100.00
11936;BME280;6027;48.576;9.180;2023-05-22T05:47:08;96568.31;;;15.18;100.00
11936;BME280;6027;48.576;9.180;2023-05-22T05:49:33;96563.00;;;15.18;100.00
11936;BME280;6027;48.576;9.180;2023-05-22T05:51:58;96556.03;;;15.17;100.00
11936;BME280;6027;48.576;9.180;2023-05-22T05:54:24;96560.13;;;15.19;100.00
11936;BME280;6027;48.576;9.180;2023-05-22T05:56:52;96559.13;;;15.14;100.00
11936;BME280;6027;48.576;9.180;2023-05-22T05:59:18;96560.63;;;15.28;100.00
11936;BME280;6027;48.576;9.180;2023-05-22T06:01:45;96561.88;;;15.26;100.00
11936;BME280;6027;48.576;9.180;2023-05-22T06:04:12;96565.25;;;15.39;100.00
11936;BME280;6027;48.576;9.180;2023-05-22T06:06:37;96559.03;;;15.45;100.00
11936;BME280;6027;48.576;9.180;2023-05-22T06:09:06;96569.03;;;15.50;100.00
11936;BME280;6027;48.576;9.180;2023-05-22T06:11:33;96566.53;;;15.55;100.00
11936;BME280;6027;48.576;9.180;2023-05-22T06:13:59;96580.22;;;15.65;100.00
11936;BME280;6027;48.576;9.180;2023-05-22T06:16:25;96569.84;;;15.75;100.00
11936;BME280;6027;48.576;9.180;2023-05-22T06:18:51;96569.97;;;15.80;100.00
11936;BME280;6027;48.576;9.180;2023-05-22T06:21:19;96577.31;;;15.85;100.00
11936;BME280;6027;48.576;9.180;2023-05-22T06:23:46;96580.66;;;15.99;100.00
11936;BME280;6027;48.576;9.180;2023-05-22T06:26:12;96576.88;;;16.06;100.00
11936;BME280;6027;48.576;9.180;2023-05-22T06:28:38;96578.44;;;16.14;100.00
11936;BME280;6027;48.576;9.180;2023-05-22T06:31:03;96577.06;;;16.23;100.00
11936;BME280;6027;48.576;9.180;2023-05-22T06:33:29;96563.78;;;16.16;100.00
11936;BME280;6027;48.576;9.180;2023-05-22T06:35:55;96583.16;;;16.30;100.00
11936;BME280;6027;48.576;9.180;2023-05-22T06:38:20;96586.91;;;16.41;100.00
11936;BME280;6027;48.576;9.180;2023-05-22T06:40:46;96575.78;;;16.44;100.00
11936;BME280;6027;48.576;9.180;2023-05-22T06:43:11;96580.81;;;16.52;100.00
11936;BME280;6027;48.576;9.180;2023-05-22T06:45:37;96586.06;;;16.58;100.00
11936;BME280;6027;48.576;9.180;2023-05-22T06:48:02;96581.06;;;16.62;100.00
11936;BME280;6027;48.576;9.180;2023-05-22T06:50:29;96579.66;;;16.78;100.00
11936;BME280;6027;48.576;9.180;2023-05-22T06:52:54;96590.94;;;16.80;100.00
11936;BME280;6027;48.576;9.180;2023-05-22T06:55:22;96578.06;;;16.88;100.00
11936;BME280;6027;48.576;9.180;2023-05-22T06:57:47;96580.97;;;16.99;100.00
11936;BME280;6027;48.576;9.180;2023-05-22T07:00:13;96587.50;;;17.14;100.00
11936;BME280;6027;48.576;9.180;2023-05-22T07:02:38;96582.16;;;17.14;100.00
11936;BME280;6027;48.576;9.180;2023-05-22T07:05:04;96593.59;;;17.21;100.00
11936;BME280;6027;48.576;9.180;2023-05-22T07:07:30;96583.00;;;17.26;100.00
11936;BME280;6027;48.576;9.180;2023-05-22T07:09:55;96585.91;;;17.37;100.00
11936;BME280;6027;48.576;9.180;2023-05-22T07:12:21;96588.38;;;17.50;100.00
11936;BME280;6027;48.576;9.180;2023-05-22T07:14:51;96595.91;;;17.53;100.00
11936;BME280;6027;48.576;9.180;2023-05-22T07:17:16;96593.13;;;17.59;100.00
11936;BME280;6027;48.576;9.180;2023-05-22T07:19:42;96592.91;;;17.73;100.00
11936;BME280;6027;48.576;9.180;2023-05-22T07:22:08;96582.09;;;17.79;100.00
11936;BME280;6027;48.576;9.180;2023-05-22T07:24:33;96596.78;;;17.88;100.00
11936;BME280;6027;48.576;9.180;2023-05-22T07:26:59;96589.63;;;17.94;100.00
11936;BME280;6027;48.576;9.180;2023-05-22T07:29:25;96590.34;;;18.01;100.00
11936;BME280;6027;48.576;9.180;2023-05-22T07:31:50;96583.69;;;18.04;100.00
11936;BME280;6027;48.576;9.180;2023-05-22T07:34:16;96590.44;;;18.06;100.00
11936;BME280;6027;48.576;9.180;2023-05-22T07:36:41;96594.75;;;18.07;100.00
11936;BME280;6027;48.576;9.180;2023-05-22T07:39:07;96593.44;;;18.10;100.00
11936;BME280;6027;48.576;9.180;2023-05-22T07:41:34;96584.94;;;18.13;100.00
11936;BME280;6027;48.576;9.180;2023-05-22T07:43:59;96582.59;;;18.16;100.00
11936;BME280;6027;48.576;9.180;2023-05-22T07:46:25;96587.84;;;18.23;100.00
11936;BME280;6027;48.576;9.180;2023-05-22T07:48:50;96590.88;;;18.15;100.00
11936;BME280;6027;48.576;9.180;2023-05-22T07:51:16;96593.09;;;18.18;100.00
11936;BME280;6027;48.576;9.180;2023-05-22T07:53:41;96584.25;;;18.17;100.00
11936;BME280;6027;48.576;9.180;2023-05-22T07:56:06;96587.97;;;18.16;100.00
11936;BME280;6027;48.576;9.180;2023-05-22T07:58:32;96590.53;;;18.11;100.00
11936;BME280;6027;48.576;9.180;2023-05-22T08:00:58;96592.50;;;18.16;100.00
11936;BME280;6027;48.576;9.180;2023-05-22T08:03:23;96601.00;;;18.24;100.00
11936;BME280;6027;48.576;9.180;2023-05-22T08:05:48;96595.78;;;18.18;100.00
11936;BME280;6027;48.576;9.180;2023-05-22T08:08:14;96597.59;;;18.29;100.00
11936;BME280;6027;48.576;9.180;2023-05-22T08:10:39;96594.72;;;18.19;100.00
11936;BME280;6027;48.576;9.180;2023-05-22T08:13:05;96595.78;;;18.18;100.00
11936;BME280;6027;48.576;9.180;2023-05-22T08:15:31;96602.53;;;18.20;100.00
11936;BME280;6027;48.576;9.180;2023-05-22T08:17:57;96600.53;;;18.27;100.00
11936;BME280;6027;48.576;9.180;2023-05-22T08:20:22;96595.25;;;18.33;100.00
11936;BME280;6027;48.576;9.180;2023-05-22T08:22:48;96600.16;;;18.36;100.00
11936;BME280;6027;48.576;9.180;2023-05-22T08:25:13;96596.66;;;18.35;100.00
11936;BME280;6027;48.576;9.180;2023-05-22T08:27:39;96596.41;;;18.37;100.00
11936;BME280;6027;48.576;9.180;2023-05-22T08:30:04;96587.66;;;18.41;100.00
11936;BME280;6027;48.576;9.180;2023-05-22T08:32:30;96593.94;;;18.47;100.00
11936;BME280;6027;48.576;9.180;2023-05-22T08:34:56;96589.38;;;18.47;100.00
11936;BME280;6027;48.576;9.180;2023-05-22T08:37:21;96592.25;;;18.57;100.00
11936;BME280;6027;48.576;9.180;2023-05-22T08:39:47;96583.31;;;18.63;100.00
11936;BME280;6027;48.576;9.180;2023-05-22T08:42:12;96583.69;;;18.84;100.00
11936;BME280;6027;48.576;9.180;2023-05-22T08:44:38;96575.88;;;18.99;100.00
11936;BME280;6027;48.576;9.180;2023-05-22T08:47:03;96577.84;;;19.04;100.00
11936;BME280;6027;48.576;9.180;2023-05-22T08:49:34;96584.56;;;19.06;100.00
11936;BME280;6027;48.576;9.180;2023-05-22T08:52:04;96580.44;;;19.15;100.00
11936;BME280;6027;48.576;9.180;2023-05-22T08:54:32;96584.66;;;19.28;100.00
11936;BME280;6027;48.576;9.180;2023-05-22T08:57:00;96584.91;;;19.26;100.00
11936;BME280;6027;48.576;9.180;2023-05-22T08:59:27;96580.94;;;19.29;100.00
11936;BME280;6027;48.576;9.180;2023-05-22T09:01:53;96574.97;;;19.44;100.00
11936;BME280;6027;48.576;9.180;2023-05-22T09:04:20;96583.38;;;19.64;100.00
11936;BME280;6027;48.576;9.180;2023-05-22T09:06:47;96587.69;;;19.82;100.00
11936;BME280;6027;48.576;9.180;2023-05-22T09:09:13;96582.09;;;19.88;100.00
11936;BME280;6027;48.576;9.180;2023-05-22T09:11:39;96576.56;;;19.95;100.00
11936;BME280;6027;48.576;9.180;2023-05-22T09:14:08;96583.66;;;20.01;100.00
11936;BME280;6027;48.576;9.180;2023-05-22T09:16:54;96580.50;;;20.09;100.00
11936;BME280;6027;48.576;9.180;2023-05-22T09:19:20;96585.00;;;20.25;100.00
11936;BME280;6027;48.576;9.180;2023-05-22T09:21:45;96575.69;;;20.33;100.00
11936;BME280;6027;48.576;9.180;2023-05-22T09:24:12;96574.22;;;20.42;100.00
11936;BME280;6027;48.576;9.180;2023-05-22T09:26:38;96572.97;;;20.50;100.00
11936;BME280;6027;48.576;9.180;2023-05-22T09:29:04;96571.19;;;20.60;100.00
11936;BME280;6027;48.576;9.180;2023-05-22T09:31:30;96573.59;;;20.57;100.00
11936;BME280;6027;48.576;9.180;2023-05-22T09:33:56;96570.94;;;20.62;100.00
11936;BME280;6027;48.576;9.180;2023-05-22T09:36:32;96565.91;;;20.71;100.00
11936;BME280;6027;48.576;9.180;2023-05-22T09:38:59;96565.63;;;20.94;100.00
11936;BME280;6027;48.576;9.180;2023-05-22T09:41:27;96563.75;;;20.99;100.00
11936;BME280;6027;48.576;9.180;2023-05-22T09:43:54;96564.97;;;21.14;100.00
11936;BME280;6027;48.576;9.180;2023-05-22T09:46:20;96561.06;;;21.26;100.00
11936;BME280;6027;48.576;9.180;2023-05-22T09:48:52;96559.25;;;21.37;100.00
11936;BME280;6027;48.576;9.180;2023-05-22T09:51:21;96563.09;;;21.46;100.00
11936;BME280;6027;48.576;9.180;2023-05-22T09:53:52;96561.25;;;21.52;100.00
11936;BME280;6027;48.576;9.180;2023-05-22T09:56:24;96557.50;;;21.53;100.00
11936;BME280;6027;48.576;9.180;2023-05-22T09:58:50;96567.31;;;21.69;100.00
11936;BME280;6027;48.576;9.180;2023-05-22T10:01:18;96560.03;;;21.75;96.07
11936;BME280;6027;48.576;9.180;2023-05-22T10:03:45;96568.19;;;21.85;92.58
11936;BME280;6027;48.576;9.180;2023-05-22T10:06:12;96559.25;;;21.79;91.77
11936;BME280;6027;48.576;9.180;2023-05-22T10:08:42;96543.88;;;21.69;89.94
11936;BME280;6027;48.576;9.180;2023-05-22T10:11:09;96564.69;;;21.84;96.82
11936;BME280;6027;48.576;9.180;2023-05-22T10:13:36;96552.88;;;21.95;97.35
11936;BME280;6027;48.576;9.180;2023-05-22T10:16:01;96557.19;;;21.96;90.27
11936;BME280;6027;48.576;9.180;2023-05-22T10:18:29;96550.00;;;22.02;86.63
11936;BME280;6027;48.576;9.180;2023-05-22T10:20:56;96551.34;;;22.04;87.34
11936;BME280;6027;48.576;9.180;2023-05-22T10:23:22;96551.63;;;22.13;89.94
11936;BME280;6027;48.576;9.180;2023-05-22T10:25:49;96554.66;;;22.22;85.17
11936;BME280;6027;48.576;9.180;2023-05-22T10:28:23;96551.69;;;22.23;85.14
11936;BME280;6027;48.576;9.180;2023-05-22T10:30:57;96546.63;;;22.37;86.43
11936;BME280;6027;48.576;9.180;2023-05-22T10:33:31;96553.16;;;22.51;84.33
11936;BME280;6027;48.576;9.180;2023-05-22T10:36:09;96550.44;;;22.56;76.91
11936;BME280;6027;48.576;9.180;2023-05-22T10:41:23;96543.44;;;22.60;75.84
11936;BME280;6027;48.576;9.180;2023-05-22T10:43:50;96544.81;;;22.63;77.91
11936;BME280;6027;48.576;9.180;2023-05-22T10:46:16;96540.22;;;22.63;76.76
11936;BME280;6027;48.576;9.180;2023-05-22T10:48:46;96531.59;;;22.66;79.45
11936;BME280;6027;48.576;9.180;2023-05-22T10:51:14;96531.56;;;22.61;74.79
11936;BME280;6027;48.576;9.180;2023-05-22T10:53:42;96535.38;;;22.65;79.56
11936;BME280;6027;48.576;9.180;2023-05-22T10:56:12;96530.03;;;22.81;84.22
11936;BME280;6027;48.576;9.180;2023-05-22T10:58:39;96523.03;;;22.90;79.21
11936;BME280;6027;48.576;9.180;2023-05-22T11:01:19;96522.22;;;22.99;78.69
11936;BME280;6027;48.576;9.180;2023-05-22T11:03:58;96523.56;;;23.17;79.26
11936;BME280;6027;48.576;9.180;2023-05-22T11:06:43;96518.16;;;23.27;74.70
11936;BME280;6027;48.576;9.180;2023-05-22T11:09:28;96511.66;;;23.33;80.05
11936;BME280;6027;48.576;9.180;2023-05-22T11:14:46;96509.78;;;23.39;69.36
11936;BME280;6027;48.576;9.180;2023-05-22T11:17:12;96506.25;;;23.38;77.11
11936;BME280;6027;48.576;9.180;2023-05-22T11:19:39;96510.56;;;23.45;71.49
11936;BME280;6027;48.576;9.180;2023-05-22T11:22:06;96502.44;;;23.50;74.50
11936;BME280;6027;48.576;9.180;2023-05-22T11:24:32;96498.69;;;23.61;67.59
11936;BME280;6027;48.576;9.180;2023-05-22T11:27:05;96500.84;;;23.59;65.58
11936;BME280;6027;48.576;9.180;2023-05-22T11:29:31;96491.88;;;23.68;63.26
11936;BME280;6027;48.576;9.180;2023-05-22T11:31:57;96486.75;;;23.67;60.67
11936;BME280;6027;48.576;9.180;2023-05-22T11:34:26;96487.00;;;23.75;66.38
11936;BME280;6027;48.576;9.180;2023-05-22T11:36:56;96483.72;;;23.89;65.99
11936;BME280;6027;48.576;9.180;2023-05-22T11:39:22;96481.00;;;23.94;61.05
11936;BME280;6027;48.576;9.180;2023-05-22T11:41:48;96469.09;;;23.95;65.81
11936;BME280;6027;48.576;9.180;2023-05-22T11:44:13;96471.78;;;24.00;66.87
11936;BME280;6027;48.576;9.180;2023-05-22T11:46:39;96469.28;;;24.14;59.87
11936;BME280;6027;48.576;9.180;2023-05-22T11:49:04;96462.22;;;24.23;64.50
11936;BME280;6027;48.576;9.180;2023-05-22T11:51:30;96458.97;;;24.21;62.97
11936;BME280;6027;48.576;9.180;2023-05-22T11:53:56;96456.28;;;24.21;60.00
11936;BME280;6027;48.576;9.180;2023-05-22T11:56:21;96454.09;;;24.23;63.37
11936;BME280;6027;48.576;9.180;2023-05-22T11:58:50;96461.16;;;24.24;66.23
11936;BME280;6027;48.576;9.180;2023-05-22T12:01:16;96464.91;;;24.28;64.12
11936;BME280;6027;48.576;9.180;2023-05-22T12:03:41;96463.31;;;24.22;65.18
11936;BME280;6027;48.576;9.180;2023-05-22T12:06:07;96460.88;;;24.20;67.80
11936;BME280;6027;48.576;9.180;2023-05-22T12:08:33;96459.47;;;24.33;63.67
11936;BME280;6027;48.576;9.180;2023-05-22T12:10:59;96466.47;;;24.39;63.31
11936;BME280;6027;48.576;9.180;2023-05-22T12:13:29;96470.56;;;24.31;59.83
11936;BME280;6027;48.576;9.180;2023-05-22T12:15:57;96467.22;;;24.44;63.98
11936;BME280;6027;48.576;9.180;2023-05-22T12:18:34;96458.00;;;24.51;62.09
11936;BME280;6027;48.576;9.180;2023-05-22T12:21:00;96460.41;;;24.57;62.26
11936;BME280;6027;48.576;9.180;2023-05-22T12:23:27;96452.00;;;24.59;63.61
11936;BME280;6027;48.576;9.180;2023-05-22T12:26:08;96457.06;;;24.65;60.54
11936;BME280;6027;48.576;9.180;2023-05-22T12:28:34;96460.31;;;24.67;59.36
11936;BME280;6027;48.576;9.180;2023-05-22T12:30:59;96462.97;;;24.77;60.69
11936;BME280;6027;48.576;9.180;2023-05-22T12:33:29;96461.88;;;24.78;59.04
11936;BME280;6027;48.576;9.180;2023-05-22T12:35:56;96458.53;;;24.87;56.48
11936;BME280;6027;48.576;9.180;2023-05-22T12:38:29;96454.31;;;24.75;57.75
11936;BME280;6027;48.576;9.180;2023-05-22T12:40:56;96453.91;;;24.97;53.70
11936;BME280;6027;48.576;9.180;2023-05-22T12:43:22;96454.22;;;24.86;53.17
11936;BME280;6027;48.576;9.180;2023-05-22T12:45:49;96460.41;;;24.91;53.70
11936;BME280;6027;48.576;9.180;2023-05-22T12:48:15;96453.69;;;24.84;56.12
11936;BME280;6027;48.576;9.180;2023-05-22T12:50:42;96459.59;;;24.96;55.04
11936;BME280;6027;48.576;9.180;2023-05-22T12:53:07;96457.13;;;24.99;51.87
11936;BME280;6027;48.576;9.180;2023-05-22T12:55:33;96452.00;;;24.98;51.95
11936;BME280;6027;48.576;9.180;2023-05-22T12:57:59;96460.66;;;25.00;52.21
11936;BME280;6027;48.576;9.180;2023-05-22T13:00:24;96453.00;;;25.07;54.14
11936;BME280;6027;48.576;9.180;2023-05-22T13:02:50;96449.09;;;25.18;55.89
11936;BME280;6027;48.576;9.180;2023-05-22T13:05:16;96441.03;;;25.13;56.09
11936;BME280;6027;48.576;9.180;2023-05-22T13:07:41;96439.09;;;25.19;57.05
11936;BME280;6027;48.576;9.180;2023-05-22T13:10:07;96449.16;;;25.13;54.20
11936;BME280;6027;48.576;9.180;2023-05-22T13:12:33;96443.44;;;25.15;54.57
11936;BME280;6027;48.576;9.180;2023-05-22T13:14:59;96442.50;;;25.00;55.10
11936;BME280;6027;48.576;9.180;2023-05-22T13:17:26;96445.72;;;25.02;55.48
11936;BME280;6027;48.576;9.180;2023-05-22T13:19:53;96447.97;;;24.95;54.16